KMBS/MBS METAR and TAF weather

Enter ICAO airport designator
Station Type Date Time Source
KMBS METAR 2019/06/27 07:53 UTC NOAA

KMBS 270753Z AUTO 20004KT 10SM CLR 17/16 A3014 RMK AO2 SLP203 T01720156


Station Type Date Time Source
KMBS Decoded METAR 2019/06/27 07:53 UTC NOAA

MBS INTERNATIONAL AIRPORT, MI, United States (KMBS) 43-32N 084-05W 202M
Jun 27, 2019 - 03:53 AM EDT / 2019.06.27 0753 UTC
Wind: from the SSW (200 degrees) at 5 MPH (4 KT):0
Visibility: 10 mile(s):0
Sky conditions: clear
Temperature: 63.0 F (17.2 C)
Dew Point: 60.1 F (15.6 C)
Relative Humidity: 90%
Pressure (altimeter): 30.14 in. Hg (1020 hPa)
ob: KMBS 270753Z AUTO 20004KT 10SM CLR 17/16 A3014 RMK AO2 SLP203 T01720156
cycle: 8

Station Type Date Time Source
KMBS TAF 2019/06/27 06:42 UTC NOAA

TAF KMBS 270540Z 2706/2806 VRB04KT P6SM BKN250
FM271500 21005KT P6SM SKC

Example: see airport list